sensor_id;sensor_type;location;lat;lon;timestamp;temperature;humidity
18450;DHT22;9354;50.194;7.690;2023-04-06T00:01:08;4.30;99.90
18450;DHT22;9354;50.194;7.690;2023-04-06T00:03:36;4.30;99.90
18450;DHT22;9354;50.194;7.690;2023-04-06T00:06:04;4.20;99.90
18450;DHT22;9354;50.194;7.690;2023-04-06T00:08:32;4.20;99.90
18450;DHT22;9354;50.194;7.690;2023-04-06T00:10:59;4.20;99.90
18450;DHT22;9354;50.194;7.690;2023-04-06T00:13:27;4.20;99.90
18450;DHT22;9354;50.194;7.690;2023-04-06T00:15:54;4.20;99.90
18450;DHT22;9354;50.194;7.690;2023-04-06T00:18:23;4.20;99.90
18450;DHT22;9354;50.194;7.690;2023-04-06T00:20:50;4.20;99.90
18450;DHT22;9354;50.194;7.690;2023-04-06T00:23:21;4.20;99.90
18450;DHT22;9354;50.194;7.690;2023-04-06T00:25:49;4.20;99.90
18450;DHT22;9354;50.194;7.690;2023-04-06T00:28:16;4.20;99.90
18450;DHT22;9354;50.194;7.690;2023-04-06T00:30:47;4.20;99.90
18450;DHT22;9354;50.194;7.690;2023-04-06T00:33:15;4.20;99.90
18450;DHT22;9354;50.194;7.690;2023-04-06T00:35:44;4.20;99.90
18450;DHT22;9354;50.194;7.690;2023-04-06T00:38:11;4.20;99.90
18450;DHT22;9354;50.194;7.690;2023-04-06T00:40:39;4.20;99.90
18450;DHT22;9354;50.194;7.690;2023-04-06T00:43:06;4.20;99.90
18450;DHT22;9354;50.194;7.690;2023-04-06T00:45:35;4.30;99.90
18450;DHT22;9354;50.194;7.690;2023-04-06T00:48:02;4.20;99.90
18450;DHT22;9354;50.194;7.690;2023-04-06T00:50:31;4.20;99.90
18450;DHT22;9354;50.194;7.690;2023-04-06T00:53:00;4.10;99.90
18450;DHT22;9354;50.194;7.690;2023-04-06T00:55:28;4.10;99.90
18450;DHT22;9354;50.194;7.690;2023-04-06T00:57:57;4.10;99.90
18450;DHT22;9354;50.194;7.690;2023-04-06T01:00:25;4.00;99.90
18450;DHT22;9354;50.194;7.690;2023-04-06T01:02:53;4.00;99.90
18450;DHT22;9354;50.194;7.690;2023-04-06T01:05:21;3.90;99.90
18450;DHT22;9354;50.194;7.690;2023-04-06T01:07:48;3.80;99.90
18450;DHT22;9354;50.194;7.690;2023-04-06T01:10:24;3.70;99.90
18450;DHT22;9354;50.194;7.690;2023-04-06T01:12:52;3.70;99.90
18450;DHT22;9354;50.194;7.690;2023-04-06T01:15:19;3.70;99.90
18450;DHT22;9354;50.194;7.690;2023-04-06T01:17:47;3.70;99.90
18450;DHT22;9354;50.194;7.690;2023-04-06T01:20:15;3.60;99.90
18450;DHT22;9354;50.194;7.690;2023-04-06T01:22:44;3.50;99.90
18450;DHT22;9354;50.194;7.690;2023-04-06T01:25:11;3.50;99.90
18450;DHT22;9354;50.194;7.690;2023-04-06T01:27:39;3.40;99.90
18450;DHT22;9354;50.194;7.690;2023-04-06T01:30:07;3.40;99.90
18450;DHT22;9354;50.194;7.690;2023-04-06T01:32:35;3.40;99.90
18450;DHT22;9354;50.194;7.690;2023-04-06T01:35:02;3.40;99.90
18450;DHT22;9354;50.194;7.690;2023-04-06T01:37:30;3.40;99.90
18450;DHT22;9354;50.194;7.690;2023-04-06T01:40:00;3.30;99.90
18450;DHT22;9354;50.194;7.690;2023-04-06T01:42:27;3.30;99.90
18450;DHT22;9354;50.194;7.690;2023-04-06T01:44:56;3.20;99.90
18450;DHT22;9354;50.194;7.690;2023-04-06T01:47:23;3.20;99.90
18450;DHT22;9354;50.194;7.690;2023-04-06T01:49:51;3.20;99.90
18450;DHT22;9354;50.194;7.690;2023-04-06T01:52:18;3.20;99.90
18450;DHT22;9354;50.194;7.690;2023-04-06T01:54:46;3.30;99.90
18450;DHT22;9354;50.194;7.690;2023-04-06T01:57:15;3.30;99.90
18450;DHT22;9354;50.194;7.690;2023-04-06T01:59:43;3.40;99.90
18450;DHT22;9354;50.194;7.690;2023-04-06T02:02:10;3.40;99.90
18450;DHT22;9354;50.194;7.690;2023-04-06T02:04:38;3.30;99.90
18450;DHT22;9354;50.194;7.690;2023-04-06T02:07:06;3.30;99.90
18450;DHT22;9354;50.194;7.690;2023-04-06T02:09:33;3.30;99.90
18450;DHT22;9354;50.194;7.690;2023-04-06T02:12:01;3.30;99.90
18450;DHT22;9354;50.194;7.690;2023-04-06T02:14:30;3.30;99.90
18450;DHT22;9354;50.194;7.690;2023-04-06T02:16:57;3.30;99.90
18450;DHT22;9354;50.194;7.690;2023-04-06T02:19:25;3.30;99.90
18450;DHT22;9354;50.194;7.690;2023-04-06T02:21:52;3.30;99.90
18450;DHT22;9354;50.194;7.690;2023-04-06T02:24:20;3.30;99.90
18450;DHT22;9354;50.194;7.690;2023-04-06T02:26:47;3.30;99.90
18450;DHT22;9354;50.194;7.690;2023-04-06T02:29:15;3.30;99.90
18450;DHT22;9354;50.194;7.690;2023-04-06T02:31:44;3.30;99.90
18450;DHT22;9354;50.194;7.690;2023-04-06T02:34:11;3.30;99.90
18450;DHT22;9354;50.194;7.690;2023-04-06T02:36:44;3.30;99.90
18450;DHT22;9354;50.194;7.690;2023-04-06T02:39:12;3.30;99.90
18450;DHT22;9354;50.194;7.690;2023-04-06T02:41:39;3.30;99.90
18450;DHT22;9354;50.194;7.690;2023-04-06T02:44:07;3.20;99.90
18450;DHT22;9354;50.194;7.690;2023-04-06T02:46:35;3.10;99.90
18450;DHT22;9354;50.194;7.690;2023-04-06T02:49:04;3.10;99.90
18450;DHT22;9354;50.194;7.690;2023-04-06T02:51:32;3.10;99.90
18450;DHT22;9354;50.194;7.690;2023-04-06T02:54:00;3.10;99.90
18450;DHT22;9354;50.194;7.690;2023-04-06T02:56:27;3.10;99.90
18450;DHT22;9354;50.194;7.690;2023-04-06T02:58:55;3.10;99.90
18450;DHT22;9354;50.194;7.690;2023-04-06T03:01:22;3.10;99.90
18450;DHT22;9354;50.194;7.690;2023-04-06T03:03:49;3.10;99.90
18450;DHT22;9354;50.194;7.690;2023-04-06T03:06:18;3.20;99.90
18450;DHT22;9354;50.194;7.690;2023-04-06T03:08:46;3.10;99.90
18450;DHT22;9354;50.194;7.690;2023-04-06T03:11:13;3.10;99.90
18450;DHT22;9354;50.194;7.690;2023-04-06T03:13:41;3.10;99.90
18450;DHT22;9354;50.194;7.690;2023-04-06T03:16:08;3.10;99.90
18450;DHT22;9354;50.194;7.690;2023-04-06T03:18:36;3.00;99.90
18450;DHT22;9354;50.194;7.690;2023-04-06T03:21:03;3.00;99.90
18450;DHT22;9354;50.194;7.690;2023-04-06T03:23:32;2.90;99.90
18450;DHT22;9354;50.194;7.690;2023-04-06T03:26:01;2.80;99.90
18450;DHT22;9354;50.194;7.690;2023-04-06T03:28:28;2.70;99.90
18450;DHT22;9354;50.194;7.690;2023-04-06T03:30:56;2.80;99.90
18450;DHT22;9354;50.194;7.690;2023-04-06T03:33:23;2.80;99.90
18450;DHT22;9354;50.194;7.690;2023-04-06T03:35:53;2.80;99.90
18450;DHT22;9354;50.194;7.690;2023-04-06T03:38:20;2.80;99.90
18450;DHT22;9354;50.194;7.690;2023-04-06T03:40:49;2.80;99.90
18450;DHT22;9354;50.194;7.690;2023-04-06T03:43:17;2.80;99.90
18450;DHT22;9354;50.194;7.690;2023-04-06T03:45:44;2.80;99.90
18450;DHT22;9354;50.194;7.690;2023-04-06T03:48:12;2.70;99.90
18450;DHT22;9354;50.194;7.690;2023-04-06T03:50:39;2.70;99.90
18450;DHT22;9354;50.194;7.690;2023-04-06T03:53:06;2.60;99.90
18450;DHT22;9354;50.194;7.690;2023-04-06T03:55:34;2.60;99.90
18450;DHT22;9354;50.194;7.690;2023-04-06T03:58:03;2.50;99.90
18450;DHT22;9354;50.194;7.690;2023-04-06T04:00:31;2.40;99.90
18450;DHT22;9354;50.194;7.690;2023-04-06T04:02:59;2.40;99.90
18450;DHT22;9354;50.194;7.690;2023-04-06T04:05:27;2.30;99.90
18450;DHT22;9354;50.194;7.690;2023-04-06T04:07:55;2.30;99.90
18450;DHT22;9354;50.194;7.690;2023-04-06T04:10:22;2.20;99.90
18450;DHT22;9354;50.194;7.690;2023-04-06T04:12:50;2.20;99.90
18450;DHT22;9354;50.194;7.690;2023-04-06T04:15:19;2.10;99.90
18450;DHT22;9354;50.194;7.690;2023-04-06T04:17:46;2.10;99.90
18450;DHT22;9354;50.194;7.690;2023-04-06T04:20:15;2.00;99.90
18450;DHT22;9354;50.194;7.690;2023-04-06T04:22:43;1.90;99.90
18450;DHT22;9354;50.194;7.690;2023-04-06T04:25:10;1.90;99.90
18450;DHT22;9354;50.194;7.690;2023-04-06T04:27:38;1.90;99.90
18450;DHT22;9354;50.194;7.690;2023-04-06T04:30:06;1.80;99.90
18450;DHT22;9354;50.194;7.690;2023-04-06T04:32:35;1.80;99.90
18450;DHT22;9354;50.194;7.690;2023-04-06T04:35:03;1.80;99.90
18450;DHT22;9354;50.194;7.690;2023-04-06T04:37:31;1.80;99.90
18450;DHT22;9354;50.194;7.690;2023-04-06T04:39:58;1.80;99.90
18450;DHT22;9354;50.194;7.690;2023-04-06T04:42:26;1.80;99.90
18450;DHT22;9354;50.194;7.690;2023-04-06T04:44:54;1.80;99.90
18450;DHT22;9354;50.194;7.690;2023-04-06T04:47:22;1.70;99.90
18450;DHT22;9354;50.194;7.690;2023-04-06T04:49:51;1.70;99.90
18450;DHT22;9354;50.194;7.690;2023-04-06T04:52:18;1.70;99.90
18450;DHT22;9354;50.194;7.690;2023-04-06T04:54:46;1.70;99.90
18450;DHT22;9354;50.194;7.690;2023-04-06T04:57:14;1.60;99.90
18450;DHT22;9354;50.194;7.690;2023-04-06T04:59:43;1.60;99.90
18450;DHT22;9354;50.194;7.690;2023-04-06T05:02:10;1.60;99.90
18450;DHT22;9354;50.194;7.690;2023-04-06T05:04:38;1.50;99.90
18450;DHT22;9354;50.194;7.690;2023-04-06T05:07:07;1.50;99.90
18450;DHT22;9354;50.194;7.690;2023-04-06T05:09:35;1.50;99.90
18450;DHT22;9354;50.194;7.690;2023-04-06T05:12:03;1.50;99.90
18450;DHT22;9354;50.194;7.690;2023-04-06T05:14:31;1.50;99.90
18450;DHT22;9354;50.194;7.690;2023-04-06T05:16:58;1.50;99.90
18450;DHT22;9354;50.194;7.690;2023-04-06T05:19:26;1.60;99.90
18450;DHT22;9354;50.194;7.690;2023-04-06T05:21:53;1.60;99.90
18450;DHT22;9354;50.194;7.690;2023-04-06T05:24:22;1.70;99.90
18450;DHT22;9354;50.194;7.690;2023-04-06T05:26:49;1.90;99.90
18450;DHT22;9354;50.194;7.690;2023-04-06T05:29:17;1.90;99.90
18450;DHT22;9354;50.194;7.690;2023-04-06T05:31:46;2.00;99.90
18450;DHT22;9354;50.194;7.690;2023-04-06T05:34:13;2.00;99.90
18450;DHT22;9354;50.194;7.690;2023-04-06T05:36:41;2.10;99.90
18450;DHT22;9354;50.194;7.690;2023-04-06T05:39:08;2.10;99.90
18450;DHT22;9354;50.194;7.690;2023-04-06T05:41:37;2.20;99.90
18450;DHT22;9354;50.194;7.690;2023-04-06T05:44:05;2.20;99.90
18450;DHT22;9354;50.194;7.690;2023-04-06T05:46:32;2.20;99.90
18450;DHT22;9354;50.194;7.690;2023-04-06T05:49:00;2.30;99.90
18450;DHT22;9354;50.194;7.690;2023-04-06T05:51:27;2.20;99.90
18450;DHT22;9354;50.194;7.690;2023-04-06T05:53:55;2.30;99.90
18450;DHT22;9354;50.194;7.690;2023-04-06T05:56:24;2.30;99.90
18450;DHT22;9354;50.194;7.690;2023-04-06T05:58:52;2.30;99.90
18450;DHT22;9354;50.194;7.690;2023-04-06T06:01:20;2.30;99.90
18450;DHT22;9354;50.194;7.690;2023-04-06T06:03:47;2.40;99.90
18450;DHT22;9354;50.194;7.690;2023-04-06T06:06:15;2.50;99.90
18450;DHT22;9354;50.194;7.690;2023-04-06T06:08:42;2.50;99.90
18450;DHT22;9354;50.194;7.690;2023-04-06T06:11:10;2.70;99.90
18450;DHT22;9354;50.194;7.690;2023-04-06T06:13:37;2.80;99.90
18450;DHT22;9354;50.194;7.690;2023-04-06T06:16:06;2.90;99.90
18450;DHT22;9354;50.194;7.690;2023-04-06T06:18:34;2.90;99.90
18450;DHT22;9354;50.194;7.690;2023-04-06T06:21:02;3.00;99.90
18450;DHT22;9354;50.194;7.690;2023-04-06T06:23:30;3.00;99.90
18450;DHT22;9354;50.194;7.690;2023-04-06T06:25:57;3.10;99.90
18450;DHT22;9354;50.194;7.690;2023-04-06T06:28:25;3.10;99.90
18450;DHT22;9354;50.194;7.690;2023-04-06T06:30:53;3.20;99.90
18450;DHT22;9354;50.194;7.690;2023-04-06T06:33:22;3.20;99.90
18450;DHT22;9354;50.194;7.690;2023-04-06T06:35:49;3.30;99.90
18450;DHT22;9354;50.194;7.690;2023-04-06T06:38:17;3.30;99.90
18450;DHT22;9354;50.194;7.690;2023-04-06T06:40:45;3.40;99.90
18450;DHT22;9354;50.194;7.690;2023-04-06T06:43:13;3.50;99.90
18450;DHT22;9354;50.194;7.690;2023-04-06T06:45:41;3.50;99.90
18450;DHT22;9354;50.194;7.690;2023-04-06T06:48:08;3.60;99.90
18450;DHT22;9354;50.194;7.690;2023-04-06T06:50:37;3.70;99.90
18450;DHT22;9354;50.194;7.690;2023-04-06T06:53:05;3.80;99.90
18450;DHT22;9354;50.194;7.690;2023-04-06T06:55:32;3.80;99.90
18450;DHT22;9354;50.194;7.690;2023-04-06T06:58:00;3.90;99.90
18450;DHT22;9354;50.194;7.690;2023-04-06T07:00:27;4.10;99.90
18450;DHT22;9354;50.194;7.690;2023-04-06T07:02:54;4.30;99.90
18450;DHT22;9354;50.194;7.690;2023-04-06T07:05:22;4.40;99.90
18450;DHT22;9354;50.194;7.690;2023-04-06T07:07:51;4.60;99.90
18450;DHT22;9354;50.194;7.690;2023-04-06T07:10:18;4.70;99.90
18450;DHT22;9354;50.194;7.690;2023-04-06T07:12:46;4.90;99.90
18450;DHT22;9354;50.194;7.690;2023-04-06T07:15:14;5.00;99.90
18450;DHT22;9354;50.194;7.690;2023-04-06T07:17:41;5.20;99.90
18450;DHT22;9354;50.194;7.690;2023-04-06T07:20:11;5.30;99.90
18450;DHT22;9354;50.194;7.690;2023-04-06T07:22:39;5.50;99.90
18450;DHT22;9354;50.194;7.690;2023-04-06T07:25:08;5.60;99.90
18450;DHT22;9354;50.194;7.690;2023-04-06T07:27:36;5.70;99.90
18450;DHT22;9354;50.194;7.690;2023-04-06T07:30:04;5.80;99.90
18450;DHT22;9354;50.194;7.690;2023-04-06T07:32:32;5.70;99.90
18450;DHT22;9354;50.194;7.690;2023-04-06T07:35:00;5.80;99.90
18450;DHT22;9354;50.194;7.690;2023-04-06T07:37:28;5.90;99.90
18450;DHT22;9354;50.194;7.690;2023-04-06T07:39:55;5.90;99.90
18450;DHT22;9354;50.194;7.690;2023-04-06T07:42:24;6.00;99.90
18450;DHT22;9354;50.194;7.690;2023-04-06T07:44:52;6.00;99.90
18450;DHT22;9354;50.194;7.690;2023-04-06T07:47:19;6.10;99.90
18450;DHT22;9354;50.194;7.690;2023-04-06T07:49:47;6.10;99.90
18450;DHT22;9354;50.194;7.690;2023-04-06T07:52:14;6.20;99.90
18450;DHT22;9354;50.194;7.690;2023-04-06T07:54:42;6.20;99.90
18450;DHT22;9354;50.194;7.690;2023-04-06T07:57:10;6.40;99.90
18450;DHT22;9354;50.194;7.690;2023-04-06T07:59:39;6.60;99.90
18450;DHT22;9354;50.194;7.690;2023-04-06T08:02:06;6.70;99.90
18450;DHT22;9354;50.194;7.690;2023-04-06T08:04:34;6.80;99.90
18450;DHT22;9354;50.194;7.690;2023-04-06T08:07:02;7.00;99.90
18450;DHT22;9354;50.194;7.690;2023-04-06T08:09:29;7.10;99.90
18450;DHT22;9354;50.194;7.690;2023-04-06T08:11:57;7.20;99.90
18450;DHT22;9354;50.194;7.690;2023-04-06T08:14:24;7.40;99.90
18450;DHT22;9354;50.194;7.690;2023-04-06T08:16:53;7.50;99.90
18450;DHT22;9354;50.194;7.690;2023-04-06T08:19:21;7.70;99.90
18450;DHT22;9354;50.194;7.690;2023-04-06T08:21:49;7.80;99.90
18450;DHT22;9354;50.194;7.690;2023-04-06T08:24:17;8.00;99.90
18450;DHT22;9354;50.194;7.690;2023-04-06T08:26:44;8.20;99.90
18450;DHT22;9354;50.194;7.690;2023-04-06T08:29:12;8.40;99.90
18450;DHT22;9354;50.194;7.690;2023-04-06T08:31:39;8.70;99.90
18450;DHT22;9354;50.194;7.690;2023-04-06T08:34:08;8.80;99.90
18450;DHT22;9354;50.194;7.690;2023-04-06T08:36:36;9.10;99.90
18450;DHT22;9354;50.194;7.690;2023-04-06T08:39:03;9.30;99.90
18450;DHT22;9354;50.194;7.690;2023-04-06T08:41:34;9.60;99.90
18450;DHT22;9354;50.194;7.690;2023-04-06T08:44:02;9.70;99.90
18450;DHT22;9354;50.194;7.690;2023-04-06T08:46:31;10.00;99.90
18450;DHT22;9354;50.194;7.690;2023-04-06T08:49:00;10.20;99.90
18450;DHT22;9354;50.194;7.690;2023-04-06T08:51:30;10.40;99.90
18450;DHT22;9354;50.194;7.690;2023-04-06T08:53:58;10.60;99.90
18450;DHT22;9354;50.194;7.690;2023-04-06T08:56:27;10.70;99.90
18450;DHT22;9354;50.194;7.690;2023-04-06T08:58:56;10.90;99.90
18450;DHT22;9354;50.194;7.690;2023-04-06T09:01:27;11.10;99.90
18450;DHT22;9354;50.194;7.690;2023-04-06T09:03:56;11.30;99.90
18450;DHT22;9354;50.194;7.690;2023-04-06T09:06:25;11.60;99.90
18450;DHT22;9354;50.194;7.690;2023-04-06T09:08:55;11.90;99.90
18450;DHT22;9354;50.194;7.690;2023-04-06T09:11:22;12.00;99.90
18450;DHT22;9354;50.194;7.690;2023-04-06T09:13:51;12.20;99.90
18450;DHT22;9354;50.194;7.690;2023-04-06T09:16:19;12.40;99.90
18450;DHT22;9354;50.194;7.690;2023-04-06T09:18:48;12.50;99.90
18450;DHT22;9354;50.194;7.690;2023-04-06T09:21:17;12.70;99.90
18450;DHT22;9354;50.194;7.690;2023-04-06T09:23:45;12.50;99.90
18450;DHT22;9354;50.194;7.690;2023-04-06T09:26:16;12.30;98.60
18450;DHT22;9354;50.194;7.690;2023-04-06T09:28:45;12.00;99.50
18450;DHT22;9354;50.194;7.690;2023-04-06T09:31:14;11.80;99.40
18450;DHT22;9354;50.194;7.690;2023-04-06T09:33:43;11.70;99.90
18450;DHT22;9354;50.194;7.690;2023-04-06T09:36:11;11.50;98.80
18450;DHT22;9354;50.194;7.690;2023-04-06T09:38:52;11.40;99.50
18450;DHT22;9354;50.194;7.690;2023-04-06T09:41:25;11.40;99.40
18450;DHT22;9354;50.194;7.690;2023-04-06T09:44:02;11.50;99.10
18450;DHT22;9354;50.194;7.690;2023-04-06T09:46:32;11.50;99.00
18450;DHT22;9354;50.194;7.690;2023-04-06T09:49:01;11.50;99.40
18450;DHT22;9354;50.194;7.690;2023-04-06T09:51:31;11.70;99.80
18450;DHT22;9354;50.194;7.690;2023-04-06T09:54:03;11.90;99.60
18450;DHT22;9354;50.194;7.690;2023-04-06T09:56:38;12.10;99.10
18450;DHT22;9354;50.194;7.690;2023-04-06T09:59:11;12.40;98.40
18450;DHT22;9354;50.194;7.690;2023-04-06T10:01:40;12.50;98.10
18450;DHT22;9354;50.194;7.690;2023-04-06T10:04:21;12.60;97.50
18450;DHT22;9354;50.194;7.690;2023-04-06T10:06:53;12.60;97.40
18450;DHT22;9354;50.194;7.690;2023-04-06T10:09:24;12.50;97.50
18450;DHT22;9354;50.194;7.690;2023-04-06T10:11:54;12.30;97.20
18450;DHT22;9354;50.194;7.690;2023-04-06T10:14:22;12.20;97.20
18450;DHT22;9354;50.194;7.690;2023-04-06T10:16:51;12.10;97.00
18450;DHT22;9354;50.194;7.690;2023-04-06T10:19:23;12.10;96.70
18450;DHT22;9354;50.194;7.690;2023-04-06T10:21:54;12.10;97.00
18450;DHT22;9354;50.194;7.690;2023-04-06T10:24:24;12.20;97.50
18450;DHT22;9354;50.194;7.690;2023-04-06T10:27:01;12.40;98.00
18450;DHT22;9354;50.194;7.690;2023-04-06T10:29:42;12.60;97.70
18450;DHT22;9354;50.194;7.690;2023-04-06T10:32:10;12.80;96.60
18450;DHT22;9354;50.194;7.690;2023-04-06T10:34:37;12.90;96.10
18450;DHT22;9354;50.194;7.690;2023-04-06T10:37:15;13.00;96.10
18450;DHT22;9354;50.194;7.690;2023-04-06T10:39:49;13.20;96.50
18450;DHT22;9354;50.194;7.690;2023-04-06T10:42:25;13.60;96.10
18450;DHT22;9354;50.194;7.690;2023-04-06T10:45:05;13.90;96.70
18450;DHT22;9354;50.194;7.690;2023-04-06T10:47:39;14.10;95.60
18450;DHT22;9354;50.194;7.690;2023-04-06T10:50:07;13.80;95.40
18450;DHT22;9354;50.194;7.690;2023-04-06T10:52:35;13.50;96.50
18450;DHT22;9354;50.194;7.690;2023-04-06T10:55:03;13.20;96.00
18450;DHT22;9354;50.194;7.690;2023-04-06T10:57:33;13.00;96.20
18450;DHT22;9354;50.194;7.690;2023-04-06T11:00:04;12.80;96.40
18450;DHT22;9354;50.194;7.690;2023-04-06T11:02:31;12.60;96.40
18450;DHT22;9354;50.194;7.690;2023-04-06T11:04:59;12.40;96.80
18450;DHT22;9354;50.194;7.690;2023-04-06T11:07:27;12.20;97.80
18450;DHT22;9354;50.194;7.690;2023-04-06T11:09:56;12.00;97.30
18450;DHT22;9354;50.194;7.690;2023-04-06T11:12:24;11.80;98.10
18450;DHT22;9354;50.194;7.690;2023-04-06T11:14:55;11.50;98.30
18450;DHT22;9354;50.194;7.690;2023-04-06T11:17:27;11.40;98.20
18450;DHT22;9354;50.194;7.690;2023-04-06T11:19:55;11.30;99.40
18450;DHT22;9354;50.194;7.690;2023-04-06T11:22:23;11.30;98.90
18450;DHT22;9354;50.194;7.690;2023-04-06T11:24:50;11.30;99.40
18450;DHT22;9354;50.194;7.690;2023-04-06T11:27:18;11.30;98.30
18450;DHT22;9354;50.194;7.690;2023-04-06T11:29:46;11.20;97.80
18450;DHT22;9354;50.194;7.690;2023-04-06T11:32:23;11.30;98.50
18450;DHT22;9354;50.194;7.690;2023-04-06T11:34:50;11.40;99.00
18450;DHT22;9354;50.194;7.690;2023-04-06T11:37:18;11.40;98.90
18450;DHT22;9354;50.194;7.690;2023-04-06T11:39:48;11.50;99.20
18450;DHT22;9354;50.194;7.690;2023-04-06T11:42:23;11.60;99.40
18450;DHT22;9354;50.194;7.690;2023-04-06T11:44:51;11.70;99.00
18450;DHT22;9354;50.194;7.690;2023-04-06T11:47:29;11.80;99.40
18450;DHT22;9354;50.194;7.690;2023-04-06T11:50:04;12.00;98.80
18450;DHT22;9354;50.194;7.690;2023-04-06T11:52:32;12.00;97.90
18450;DHT22;9354;50.194;7.690;2023-04-06T11:55:10;12.00;97.60
18450;DHT22;9354;50.194;7.690;2023-04-06T11:57:38;12.00;97.80
18450;DHT22;9354;50.194;7.690;2023-04-06T12:00:06;12.00;97.90
18450;DHT22;9354;50.194;7.690;2023-04-06T12:02:37;12.00;98.10
18450;DHT22;9354;50.194;7.690;2023-04-06T12:05:05;12.10;97.60
18450;DHT22;9354;50.194;7.690;2023-04-06T12:07:34;12.20;97.40
18450;DHT22;9354;50.194;7.690;2023-04-06T12:10:03;12.40;97.30
18450;DHT22;9354;50.194;7.690;2023-04-06T12:12:31;12.60;96.90
18450;DHT22;9354;50.194;7.690;2023-04-06T12:14:58;12.70;96.20
18450;DHT22;9354;50.194;7.690;2023-04-06T12:17:26;12.80;96.20
18450;DHT22;9354;50.194;7.690;2023-04-06T12:19:54;12.90;96.20
18450;DHT22;9354;50.194;7.690;2023-04-06T12:22:22;13.00;95.80
18450;DHT22;9354;50.194;7.690;2023-04-06T12:24:49;13.10;95.60
18450;DHT22;9354;50.194;7.690;2023-04-06T12:27:17;13.10;96.20
18450;DHT22;9354;50.194;7.690;2023-04-06T12:29:44;13.00;96.40
18450;DHT22;9354;50.194;7.690;2023-04-06T12:32:12;13.00;96.30
18450;DHT22;9354;50.194;7.690;2023-04-06T12:34:39;12.90;95.50
18450;DHT22;9354;50.194;7.690;2023-04-06T12:37:08;12.70;95.90
18450;DHT22;9354;50.194;7.690;2023-04-06T12:39:36;12.60;96.30
18450;DHT22;9354;50.194;7.690;2023-04-06T12:42:03;12.60;96.20
18450;DHT22;9354;50.194;7.690;2023-04-06T12:44:31;12.70;95.90
18450;DHT22;9354;50.194;7.690;2023-04-06T12:46:58;12.80;94.80
18450;DHT22;9354;50.194;7.690;2023-04-06T12:49:26;12.80;95.10
18450;DHT22;9354;50.194;7.690;2023-04-06T12:51:53;12.90;95.60
18450;DHT22;9354;50.194;7.690;2023-04-06T12:54:22;12.90;95.70
18450;DHT22;9354;50.194;7.690;2023-04-06T12:56:52;12.90;95.60
18450;DHT22;9354;50.194;7.690;2023-04-06T12:59:20;12.90;95.20
18450;DHT22;9354;50.194;7.690;2023-04-06T13:01:47;12.90;95.20
18450;DHT22;9354;50.194;7.690;2023-04-06T13:04:15;13.00;95.10
18450;DHT22;9354;50.194;7.690;2023-04-06T13:06:42;13.00;94.60
18450;DHT22;9354;50.194;7.690;2023-04-06T13:09:09;13.10;94.70
18450;DHT22;9354;50.194;7.690;2023-04-06T13:11:38;13.20;94.60
18450;DHT22;9354;50.194;7.690;2023-04-06T13:14:07;13.30;94.50
18450;DHT22;9354;50.194;7.690;2023-04-06T13:16:34;13.50;94.40
18450;DHT22;9354;50.194;7.690;2023-04-06T13:19:02;13.70;94.20
18450;DHT22;9354;50.194;7.690;2023-04-06T13:21:29;13.90;94.30
18450;DHT22;9354;50.194;7.690;2023-04-06T13:23:57;14.00;94.20
18450;DHT22;9354;50.194;7.690;2023-04-06T13:26:26;14.10;93.90
18450;DHT22;9354;50.194;7.690;2023-04-06T13:28:56;14.00;93.90
18450;DHT22;9354;50.194;7.690;2023-04-06T13:31:23;14.00;94.20
18450;DHT22;9354;50.194;7.690;2023-04-06T13:33:51;13.80;94.00
18450;DHT22;9354;50.194;7.690;2023-04-06T13:36:18;13.60;93.90
18450;DHT22;9354;50.194;7.690;2023-04-06T13:38:46;13.50;93.70
18450;DHT22;9354;50.194;7.690;2023-04-06T13:41:18;13.40;94.90
18450;DHT22;9354;50.194;7.690;2023-04-06T13:43:46;13.30;95.20
18450;DHT22;9354;50.194;7.690;2023-04-06T13:46:15;13.10;95.00
18450;DHT22;9354;50.194;7.690;2023-04-06T13:48:43;13.10;95.10
18450;DHT22;9354;50.194;7.690;2023-04-06T13:51:12;13.10;94.90
18450;DHT22;9354;50.194;7.690;2023-04-06T13:53:39;13.10;94.60
18450;DHT22;9354;50.194;7.690;2023-04-06T13:56:07;13.10;94.70
18450;DHT22;9354;50.194;7.690;2023-04-06T13:58:35;13.10;94.50
18450;DHT22;9354;50.194;7.690;2023-04-06T14:01:03;13.00;94.70
18450;DHT22;9354;50.194;7.690;2023-04-06T14:03:33;13.00;94.60
18450;DHT22;9354;50.194;7.690;2023-04-06T14:06:01;12.90;95.50
18450;DHT22;9354;50.194;7.690;2023-04-06T14:08:28;12.70;95.80
18450;DHT22;9354;50.194;7.690;2023-04-06T14:10:55;12.60;96.50
18450;DHT22;9354;50.194;7.690;2023-04-06T14:13:23;12.40;96.60
18450;DHT22;9354;50.194;7.690;2023-04-06T14:15:53;12.40;97.60
18450;DHT22;9354;50.194;7.690;2023-04-06T14:18:21;12.20;97.10
18450;DHT22;9354;50.194;7.690;2023-04-06T14:20:55;12.10;96.80
18450;DHT22;9354;50.194;7.690;2023-04-06T14:23:23;12.00;96.90
18450;DHT22;9354;50.194;7.690;2023-04-06T14:26:00;11.90;97.00
18450;DHT22;9354;50.194;7.690;2023-04-06T14:28:28;11.80;97.00
18450;DHT22;9354;50.194;7.690;2023-04-06T14:30:56;11.80;97.00
18450;DHT22;9354;50.194;7.690;2023-04-06T14:33:24;11.80;96.90
18450;DHT22;9354;50.194;7.690;2023-04-06T14:35:52;11.80;97.00
18450;DHT22;9354;50.194;7.690;2023-04-06T14:38:20;11.80;97.10
18450;DHT22;9354;50.194;7.690;2023-04-06T14:40:48;11.90;97.10
18450;DHT22;9354;50.194;7.690;2023-04-06T14:43:16;11.80;97.20
18450;DHT22;9354;50.194;7.690;2023-04-06T14:45:43;11.80;97.50
18450;DHT22;9354;50.194;7.690;2023-04-06T14:48:10;11.70;97.70
18450;DHT22;9354;50.194;7.690;2023-04-06T14:50:39;11.70;97.90
18450;DHT22;9354;50.194;7.690;2023-04-06T14:53:06;11.60;98.00
18450;DHT22;9354;50.194;7.690;2023-04-06T14:55:40;11.60;98.40
18450;DHT22;9354;50.194;7.690;2023-04-06T14:58:08;11.60;98.60
18450;DHT22;9354;50.194;7.690;2023-04-06T15:00:37;11.50;99.20
18450;DHT22;9354;50.194;7.690;2023-04-06T15:03:05;11.40;99.90
18450;DHT22;9354;50.194;7.690;2023-04-06T15:05:33;11.40;99.90
18450;DHT22;9354;50.194;7.690;2023-04-06T15:08:01;11.30;99.90
18450;DHT22;9354;50.194;7.690;2023-04-06T15:10:31;11.20;99.90
18450;DHT22;9354;50.194;7.690;2023-04-06T15:13:00;11.10;99.90
18450;DHT22;9354;50.194;7.690;2023-04-06T15:15:28;10.90;99.90
18450;DHT22;9354;50.194;7.690;2023-04-06T15:17:55;10.90;99.90
18450;DHT22;9354;50.194;7.690;2023-04-06T15:20:23;10.90;99.90
18450;DHT22;9354;50.194;7.690;2023-04-06T15:22:50;10.90;99.90
18450;DHT22;9354;50.194;7.690;2023-04-06T15:25:19;10.90;99.90
18450;DHT22;9354;50.194;7.690;2023-04-06T15:27:47;11.00;99.90
18450;DHT22;9354;50.194;7.690;2023-04-06T15:30:15;11.00;99.90
18450;DHT22;9354;50.194;7.690;2023-04-06T15:32:52;11.10;99.90
18450;DHT22;9354;50.194;7.690;2023-04-06T15:35:19;11.20;99.90
18450;DHT22;9354;50.194;7.690;2023-04-06T15:37:47;11.20;99.90
18450;DHT22;9354;50.194;7.690;2023-04-06T15:40:15;11.20;99.90
18450;DHT22;9354;50.194;7.690;2023-04-06T15:42:42;11.20;99.90
18450;DHT22;9354;50.194;7.690;2023-04-06T15:45:10;11.20;99.90
18450;DHT22;9354;50.194;7.690;2023-04-06T15:47:40;11.10;99.90
18450;DHT22;9354;50.194;7.690;2023-04-06T15:50:08;11.00;99.90
18450;DHT22;9354;50.194;7.690;2023-04-06T15:52:38;10.90;99.90
18450;DHT22;9354;50.194;7.690;2023-04-06T15:55:07;10.80;99.90
18450;DHT22;9354;50.194;7.690;2023-04-06T15:57:34;10.80;99.90
18450;DHT22;9354;50.194;7.690;2023-04-06T16:00:03;10.70;99.90
18450;DHT22;9354;50.194;7.690;2023-04-06T16:02:31;10.60;99.90